createdAt,value
2023-04-06T00:00:25.134Z,15.86
2023-04-06T00:02:53.163Z,16.53
2023-04-06T00:05:21.083Z,16.38
2023-04-06T00:07:48.055Z,16.47
2023-04-06T00:10:14.787Z,16.08
2023-04-06T00:12:41.606Z,16.31
2023-04-06T00:15:08.867Z,16.35
2023-04-06T00:17:35.837Z,16.47
2023-04-06T00:20:02.607Z,16.38
2023-04-06T00:22:29.523Z,16.57
2023-04-06T00:24:56.326Z,16.55
2023-04-06T00:27:23.044Z,16.61
2023-04-06T00:29:49.957Z,16.59
2023-04-06T00:32:17.293Z,16.54
2023-04-06T00:34:44.140Z,16.48
2023-04-06T00:37:12.703Z,16.27
2023-04-06T00:39:39.450Z,16.35
2023-04-06T00:42:10.807Z,16.28
2023-04-06T00:44:37.739Z,15.99
2023-04-06T00:47:04.683Z,16.10
2023-04-06T00:49:31.487Z,16.04
2023-04-06T00:51:58.318Z,16.06
2023-04-06T00:54:25.123Z,16.02
2023-04-06T00:56:51.862Z,15.94
2023-04-06T00:59:18.805Z,16.16
2023-04-06T01:01:45.791Z,16.20
2023-04-06T01:04:23.877Z,16.11
2023-04-06T01:06:51.203Z,16.00
2023-04-06T01:09:18.428Z,16.03
2023-04-06T01:11:45.558Z,15.74
2023-04-06T01:14:12.382Z,16.17
2023-04-06T01:16:39.230Z,16.23
2023-04-06T01:19:11.005Z,16.32
2023-04-06T01:21:38.679Z,16.05
2023-04-06T01:24:06.187Z,16.31
2023-04-06T01:26:33.543Z,16.19
2023-04-06T01:29:00.469Z,16.01
2023-04-06T01:31:27.492Z,16.07
2023-04-06T01:33:54.499Z,16.26
2023-04-06T01:36:21.672Z,15.87
2023-04-06T01:38:48.416Z,16.32
2023-04-06T01:41:15.570Z,16.37
2023-04-06T01:43:42.278Z,16.40
2023-04-06T01:46:09.119Z,16.38
2023-04-06T01:48:36.358Z,16.24
2023-04-06T01:51:03.352Z,16.21
2023-04-06T01:53:30.210Z,16.17
2023-04-06T01:55:57.055Z,15.95
2023-04-06T01:58:23.780Z,15.98
2023-04-06T02:00:50.572Z,15.87
2023-04-06T02:03:17.421Z,15.56
2023-04-06T02:05:44.215Z,15.69
2023-04-06T02:08:10.943Z,15.66
2023-04-06T02:10:37.833Z,15.46
2023-04-06T02:13:04.635Z,15.55
2023-04-06T02:15:31.389Z,15.30
2023-04-06T02:17:58.679Z,15.32
2023-04-06T02:20:25.590Z,15.33
2023-04-06T02:22:53.495Z,15.33
2023-04-06T02:25:20.350Z,15.28
2023-04-06T02:27:47.133Z,15.26
2023-04-06T02:30:14.068Z,15.01
2023-04-06T02:32:41.581Z,15.18
2023-04-06T02:35:08.765Z,15.24
2023-04-06T02:37:35.486Z,15.23
2023-04-06T02:40:02.302Z,15.23
2023-04-06T02:42:29.014Z,14.99
2023-04-06T02:44:55.722Z,15.23
2023-04-06T02:47:22.609Z,15.20
2023-04-06T02:49:49.322Z,15.22
2023-04-06T02:52:16.080Z,14.64
2023-04-06T02:54:42.923Z,15.25
2023-04-06T02:57:09.638Z,15.26
2023-04-06T02:59:36.984Z,15.24
2023-04-06T03:02:03.832Z,15.28
2023-04-06T03:04:30.813Z,15.27
2023-04-06T03:07:00.748Z,15.25
2023-04-06T03:09:28.706Z,15.41
2023-04-06T03:11:56.314Z,14.95
2023-04-06T03:14:23.438Z,15.53
2023-04-06T03:16:50.530Z,15.56
2023-04-06T03:19:17.260Z,15.38
2023-04-06T03:21:44.055Z,14.98
2023-04-06T03:24:11.020Z,15.27
2023-04-06T03:26:37.823Z,14.63
2023-04-06T03:29:04.667Z,15.44
2023-04-06T03:31:31.524Z,15.55
2023-04-06T03:33:58.341Z,15.04
2023-04-06T03:36:25.077Z,15.59
2023-04-06T03:38:51.939Z,15.36
2023-04-06T03:41:18.747Z,15.17
2023-04-06T03:43:45.984Z,15.24
2023-04-06T03:46:12.971Z,15.07
2023-04-06T03:48:39.784Z,14.90
2023-04-06T03:51:06.536Z,14.77
2023-04-06T03:53:33.370Z,14.36
2023-04-06T03:56:00.916Z,14.59
2023-04-06T03:58:28.391Z,14.20
2023-04-06T04:00:55.229Z,14.37
2023-04-06T04:03:24.638Z,14.04
2023-04-06T04:05:52.095Z,14.26
2023-04-06T04:08:18.936Z,14.41
2023-04-06T04:10:45.656Z,14.50
2023-04-06T04:13:12.367Z,14.57
2023-04-06T04:15:39.088Z,14.40
2023-04-06T04:18:05.946Z,14.65
2023-04-06T04:20:32.798Z,14.59
2023-04-06T04:22:59.499Z,14.36
2023-04-06T04:25:26.397Z,14.58
2023-04-06T04:27:53.406Z,14.28
2023-04-06T04:30:20.157Z,14.23
2023-04-06T04:32:46.905Z,14.12
2023-04-06T04:35:14.754Z,14.14
2023-04-06T04:37:42.174Z,14.17
2023-04-06T04:40:09.605Z,13.84
2023-04-06T04:42:36.492Z,14.07
2023-04-06T04:45:03.321Z,14.16
2023-04-06T04:47:30.184Z,14.23
2023-04-06T04:49:57.122Z,14.33
2023-04-06T04:52:23.831Z,14.28
2023-04-06T04:54:50.626Z,14.42
2023-04-06T04:57:17.412Z,14.40
2023-04-06T04:59:44.361Z,14.35
2023-04-06T05:02:11.168Z,14.39
2023-04-06T05:04:38.108Z,14.14
2023-04-06T05:07:05.457Z,14.28
2023-04-06T05:09:32.591Z,14.20
2023-04-06T05:12:00.760Z,14.12
2023-04-06T05:14:30.866Z,13.83
2023-04-06T05:16:58.252Z,14.00
2023-04-06T05:19:25.043Z,13.95
2023-04-06T05:21:51.829Z,13.90
2023-04-06T05:24:18.553Z,13.78
2023-04-06T05:26:45.832Z,13.81
2023-04-06T05:29:12.675Z,13.78
2023-04-06T05:31:39.392Z,13.53
2023-04-06T05:34:06.477Z,13.64
2023-04-06T05:36:33.424Z,13.69
2023-04-06T05:39:00.529Z,13.64
2023-04-06T05:41:27.405Z,13.63
2023-04-06T05:43:54.190Z,13.59
2023-04-06T05:46:21.343Z,13.58
2023-04-06T05:48:48.188Z,13.57
2023-04-06T05:51:14.987Z,13.54
2023-04-06T05:53:41.861Z,13.51
2023-04-06T05:56:08.673Z,13.52
2023-04-06T05:58:35.601Z,13.57
2023-04-06T06:01:02.480Z,13.59
2023-04-06T06:03:29.860Z,13.63
2023-04-06T06:06:05.323Z,13.65
2023-04-06T06:08:32.608Z,13.65
2023-04-06T06:11:00.523Z,13.65
2023-04-06T06:13:27.278Z,13.67
2023-04-06T06:15:54.590Z,13.63
2023-04-06T06:18:21.365Z,13.56
2023-04-06T06:20:48.099Z,13.60
2023-04-06T06:23:15.753Z,13.66
2023-04-06T06:25:42.545Z,13.73
2023-04-06T06:28:09.350Z,13.65
2023-04-06T06:30:36.257Z,13.68
2023-04-06T06:33:03.289Z,13.79
2023-04-06T06:35:30.829Z,13.82
2023-04-06T06:37:57.659Z,13.68
2023-04-06T06:40:25.390Z,13.98
2023-04-06T06:42:52.563Z,13.94
2023-04-06T06:45:19.887Z,14.09
2023-04-06T06:47:47.289Z,14.22
2023-04-06T06:50:14.168Z,14.43
2023-04-06T06:52:41.575Z,14.56
2023-04-06T06:55:09.518Z,14.27
2023-04-06T06:57:36.247Z,14.70
2023-04-06T07:00:03.184Z,14.93
2023-04-06T07:02:30.151Z,15.16
2023-04-06T07:04:57.112Z,15.39
2023-04-06T07:07:24.165Z,15.37
2023-04-06T07:09:51.015Z,15.86
2023-04-06T07:12:17.812Z,16.09
2023-04-06T07:14:44.680Z,16.26
2023-04-06T07:17:11.499Z,16.47
2023-04-06T07:19:38.309Z,16.67
2023-04-06T07:22:05.814Z,16.80
2023-04-06T07:24:32.592Z,17.03
2023-04-06T07:27:00.176Z,17.02
2023-04-06T07:29:27.027Z,17.51
2023-04-06T07:31:55.053Z,17.62
2023-04-06T07:34:21.970Z,17.89
2023-04-06T07:36:48.893Z,18.15
2023-04-06T07:39:15.883Z,18.19
2023-04-06T07:41:43.071Z,18.09
2023-04-06T07:44:10.244Z,18.84
2023-04-06T07:46:37.717Z,18.94
2023-04-06T07:49:04.614Z,19.24
2023-04-06T07:51:32.381Z,19.42
2023-04-06T07:53:59.178Z,19.55
2023-04-06T07:56:26.307Z,19.68
2023-04-06T07:58:54.533Z,19.73
2023-04-06T08:01:21.394Z,19.21
2023-04-06T08:03:48.454Z,20.00
2023-04-06T08:06:15.751Z,20.40
2023-04-06T08:08:43.063Z,20.50
2023-04-06T08:11:10.218Z,20.81
2023-04-06T08:13:37.037Z,20.84
2023-04-06T08:16:03.985Z,21.20
2023-04-06T08:18:31.106Z,21.47
2023-04-06T08:20:58.282Z,21.55
2023-04-06T08:23:25.167Z,22.11
2023-04-06T08:25:54.423Z,22.41
2023-04-06T08:28:22.395Z,22.91
2023-04-06T08:30:49.185Z,23.31
2023-04-06T08:33:16.000Z,23.69
2023-04-06T08:35:42.942Z,24.02
2023-04-06T08:38:09.680Z,24.15
2023-04-06T08:40:40.045Z,24.16
2023-04-06T08:43:09.742Z,24.19
2023-04-06T08:45:36.986Z,24.22
2023-04-06T08:48:04.429Z,24.19
2023-04-06T08:50:31.533Z,24.26
2023-04-06T08:52:58.419Z,24.50
2023-04-06T08:55:25.231Z,24.58
2023-04-06T08:57:54.566Z,24.66
2023-04-06T09:00:22.886Z,24.59
2023-04-06T09:02:50.754Z,24.89
2023-04-06T09:05:17.739Z,24.80
2023-04-06T09:07:44.567Z,25.19
2023-04-06T09:10:11.662Z,25.34
2023-04-06T09:12:38.502Z,25.37
2023-04-06T09:15:06.356Z,25.70
2023-04-06T09:17:37.855Z,25.83
2023-04-06T09:20:06.041Z,26.07
2023-04-06T09:22:39.678Z,26.25
2023-04-06T09:25:07.539Z,26.37
2023-04-06T09:27:35.860Z,26.72
2023-04-06T09:30:06.522Z,26.90
2023-04-06T09:32:33.466Z,27.10
2023-04-06T09:35:10.066Z,27.18
2023-04-06T09:37:37.094Z,27.44
2023-04-06T09:40:05.387Z,27.43
2023-04-06T09:42:32.177Z,27.74
2023-04-06T09:44:59.000Z,27.87
2023-04-06T09:47:29.296Z,27.89
2023-04-06T09:50:00.925Z,27.85
2023-04-06T09:52:32.319Z,27.65
2023-04-06T09:55:02.235Z,27.95
2023-04-06T09:57:34.354Z,27.87
2023-04-06T10:00:12.886Z,28.00
2023-04-06T10:02:48.748Z,28.03
2023-04-06T10:05:27.127Z,27.93
2023-04-06T10:08:00.471Z,28.33
2023-04-06T10:10:29.421Z,28.50
2023-04-06T10:12:56.886Z,28.50
2023-04-06T10:15:23.696Z,28.61
2023-04-06T10:17:50.631Z,28.34
2023-04-06T10:20:22.130Z,28.08
2023-04-06T10:23:15.668Z,27.95
2023-04-06T10:25:56.004Z,27.98
2023-04-06T10:28:22.961Z,28.03
2023-04-06T10:30:49.868Z,28.01
2023-04-06T10:33:21.372Z,28.20
2023-04-06T10:35:48.322Z,28.43
2023-04-06T10:38:15.611Z,28.75
2023-04-06T10:40:48.995Z,28.90
2023-04-06T10:43:21.058Z,29.36
2023-04-06T10:45:59.454Z,29.41
2023-04-06T10:48:27.269Z,29.37
2023-04-06T10:50:54.207Z,29.39
2023-04-06T10:53:27.862Z,29.58
2023-04-06T10:55:56.538Z,29.62
2023-04-06T10:58:29.964Z,29.86
2023-04-06T11:01:00.976Z,29.96
2023-04-06T11:03:28.354Z,29.79
2023-04-06T11:05:55.248Z,30.57
2023-04-06T11:08:28.219Z,30.95
2023-04-06T11:11:17.135Z,31.05
2023-04-06T11:13:57.732Z,31.02
2023-04-06T11:16:26.718Z,31.23
2023-04-06T11:18:54.658Z,31.47
2023-04-06T11:21:34.395Z,31.21
2023-04-06T11:24:17.094Z,31.34
2023-04-06T11:26:57.176Z,31.39
2023-04-06T11:29:27.555Z,31.39
2023-04-06T11:31:55.389Z,31.47
2023-04-06T11:34:25.715Z,31.14
2023-04-06T11:37:00.407Z,31.55
2023-04-06T11:39:28.468Z,31.83
2023-04-06T11:42:00.298Z,32.23
2023-04-06T11:44:33.085Z,32.61
2023-04-06T11:47:00.557Z,33.02
2023-04-06T11:49:30.795Z,33.38
2023-04-06T11:51:58.549Z,33.80
2023-04-06T11:54:38.994Z,34.10
2023-04-06T11:57:06.423Z,34.59
2023-04-06T11:59:34.011Z,34.95
2023-04-06T12:02:00.975Z,35.34
2023-04-06T12:04:27.870Z,35.52
2023-04-06T12:06:54.718Z,35.63
2023-04-06T12:09:21.594Z,35.83
2023-04-06T12:11:48.652Z,36.15
2023-04-06T12:14:15.577Z,36.26
2023-04-06T12:16:42.313Z,36.75
2023-04-06T12:19:09.279Z,36.97
2023-04-06T12:21:38.345Z,37.23
2023-04-06T12:24:05.876Z,37.35
2023-04-06T12:26:32.811Z,37.62
2023-04-06T12:29:07.814Z,37.63
2023-04-06T12:31:36.641Z,37.38
2023-04-06T12:34:04.811Z,37.77
2023-04-06T12:36:32.513Z,37.90
2023-04-06T12:38:59.655Z,38.46
2023-04-06T12:41:26.659Z,38.37
2023-04-06T12:43:53.477Z,38.38
2023-04-06T12:46:21.088Z,38.55
2023-04-06T12:48:48.083Z,38.84
2023-04-06T12:51:14.889Z,38.75
2023-04-06T12:53:41.752Z,39.36
2023-04-06T12:56:16.751Z,39.42
2023-04-06T12:58:43.942Z,39.43
2023-04-06T13:01:12.649Z,39.29
2023-04-06T13:03:40.118Z,39.48
2023-04-06T13:06:07.274Z,39.64
2023-04-06T13:08:34.165Z,39.81
2023-04-06T13:11:00.977Z,39.98
2023-04-06T13:13:28.782Z,39.64
2023-04-06T13:16:00.194Z,38.90
2023-04-06T13:18:27.346Z,37.50
2023-04-06T13:20:54.205Z,36.31
2023-04-06T13:23:21.062Z,35.04
2023-04-06T13:25:47.837Z,34.07
2023-04-06T13:28:15.044Z,32.90
2023-04-06T13:30:41.865Z,32.03
2023-04-06T13:33:08.810Z,31.24
2023-04-06T13:35:37.055Z,30.24
2023-04-06T13:38:03.874Z,29.13
2023-04-06T13:40:30.768Z,28.85
2023-04-06T13:42:57.600Z,28.52
2023-04-06T13:45:24.622Z,28.18
2023-04-06T13:47:51.958Z,27.71
2023-04-06T13:50:19.246Z,27.46
2023-04-06T13:52:46.174Z,27.17
2023-04-06T13:55:12.992Z,26.99
2023-04-06T13:57:39.899Z,26.79
2023-04-06T14:00:08.319Z,26.65
2023-04-06T14:02:35.352Z,26.54
2023-04-06T14:05:02.270Z,26.37
2023-04-06T14:07:29.081Z,26.07
2023-04-06T14:09:55.874Z,26.16
2023-04-06T14:12:22.920Z,26.09
2023-04-06T14:14:49.722Z,26.05
2023-04-06T14:17:16.546Z,26.00
2023-04-06T14:19:44.283Z,25.79
2023-04-06T14:22:11.536Z,25.93
2023-04-06T14:24:38.758Z,25.71
2023-04-06T14:27:05.605Z,25.84
2023-04-06T14:29:32.342Z,25.83
2023-04-06T14:32:00.975Z,25.74
2023-04-06T14:34:28.302Z,25.74
2023-04-06T14:36:55.176Z,25.73
2023-04-06T14:39:22.024Z,25.34
2023-04-06T14:41:49.893Z,25.42
2023-04-06T14:44:17.894Z,25.57
2023-04-06T14:46:44.963Z,25.51
2023-04-06T14:49:12.378Z,25.50
2023-04-06T14:51:40.115Z,25.21
2023-04-06T14:54:06.881Z,25.38
2023-04-06T14:56:33.830Z,25.31
2023-04-06T14:59:02.493Z,25.23
2023-04-06T15:01:29.321Z,25.17
2023-04-06T15:03:56.460Z,25.05
2023-04-06T15:06:23.380Z,24.92
2023-04-06T15:08:50.980Z,24.91
2023-04-06T15:11:17.906Z,24.96
2023-04-06T15:13:45.347Z,24.91
2023-04-06T15:16:12.486Z,24.81
2023-04-06T15:18:39.412Z,24.50
2023-04-06T15:21:07.289Z,24.56
2023-04-06T15:23:35.438Z,24.51
2023-04-06T15:26:02.454Z,24.68
2023-04-06T15:28:29.846Z,24.62
2023-04-06T15:30:56.936Z,24.59
2023-04-06T15:33:24.128Z,24.54
2023-04-06T15:35:51.217Z,24.41
2023-04-06T15:38:17.982Z,24.25
2023-04-06T15:40:49.073Z,24.12
2023-04-06T15:43:15.926Z,24.36
2023-04-06T15:45:42.754Z,24.24
2023-04-06T15:48:10.052Z,24.24
2023-04-06T15:50:36.868Z,24.27
2023-04-06T15:53:03.720Z,24.22
2023-04-06T15:55:30.764Z,24.20
2023-04-06T15:57:57.484Z,24.20
2023-04-06T16:00:25.453Z,24.03
2023-04-06T16:02:52.583Z,24.09
2023-04-06T16:05:19.578Z,24.12
2023-04-06T16:07:46.347Z,23.61
2023-04-06T16:10:13.196Z,24.00
2023-04-06T16:12:42.507Z,23.97
2023-04-06T16:15:09.509Z,23.94
2023-04-06T16:17:36.566Z,23.76
2023-04-06T16:20:04.038Z,23.84
2023-04-06T16:22:30.854Z,23.26
2023-04-06T16:24:58.911Z,23.79
2023-04-06T16:27:25.852Z,23.89
2023-04-06T16:29:52.781Z,23.88
2023-04-06T16:32:19.664Z,23.86
2023-04-06T16:34:47.506Z,23.82
2023-04-06T16:37:14.291Z,23.71
2023-04-06T16:39:41.169Z,23.77
2023-04-06T16:42:07.890Z,23.77
2023-04-06T16:44:34.957Z,23.60
2023-04-06T16:47:01.812Z,23.48
2023-04-06T16:49:28.784Z,23.67
2023-04-06T16:51:55.570Z,23.42
2023-04-06T16:54:22.445Z,23.45
2023-04-06T16:56:49.173Z,23.59
2023-04-06T16:59:16.116Z,23.56
2023-04-06T17:01:43.225Z,23.53
2023-04-06T17:04:10.331Z,23.48
2023-04-06T17:06:37.216Z,23.36
2023-04-06T17:09:04.138Z,23.41
2023-04-06T17:11:43.564Z,23.37
2023-04-06T17:14:13.234Z,23.34
2023-04-06T17:16:40.005Z,23.31
2023-04-06T17:19:07.283Z,23.31
2023-04-06T17:21:34.168Z,23.20
2023-04-06T17:24:01.039Z,23.21
2023-04-06T17:26:27.832Z,22.94
2023-04-06T17:28:54.839Z,23.21
2023-04-06T17:31:22.578Z,23.07
2023-04-06T17:33:49.975Z,23.09
2023-04-06T17:36:16.841Z,23.21
2023-04-06T17:38:45.881Z,23.20
2023-04-06T17:41:13.320Z,23.22
2023-04-06T17:43:40.389Z,23.22
2023-04-06T17:46:07.257Z,23.23
2023-04-06T17:48:34.428Z,23.01
2023-04-06T17:51:01.541Z,23.08
2023-04-06T17:53:34.569Z,23.22
2023-04-06T17:56:04.756Z,23.26
2023-04-06T17:58:31.714Z,23.23
2023-04-06T18:00:58.457Z,23.18
2023-04-06T18:03:25.344Z,23.19
2023-04-06T18:05:52.319Z,23.13
2023-04-06T18:08:19.092Z,23.00
2023-04-06T18:10:46.454Z,23.08
2023-04-06T18:13:13.732Z,23.05
2023-04-06T18:15:40.515Z,23.03
2023-04-06T18:18:08.138Z,23.01
2023-04-06T18:20:39.930Z,22.91
2023-04-06T18:23:06.695Z,22.94
2023-04-06T18:25:38.610Z,22.90
2023-04-06T18:28:05.978Z,22.87
2023-04-06T18:30:32.761Z,22.88
2023-04-06T18:33:00.710Z,22.87
2023-04-06T18:35:27.540Z,22.66
2023-04-06T18:37:54.270Z,22.91
2023-04-06T18:40:34.404Z,22.70
2023-04-06T18:43:01.997Z,22.91
2023-04-06T18:45:28.833Z,22.91
2023-04-06T18:47:57.009Z,22.81
2023-04-06T18:50:24.188Z,22.90
2023-04-06T18:52:52.205Z,22.88
2023-04-06T18:55:20.029Z,22.85
2023-04-06T18:57:47.089Z,22.78
2023-04-06T19:00:15.129Z,22.70
2023-04-06T19:02:44.567Z,22.50
2023-04-06T19:05:12.291Z,22.30
2023-04-06T19:07:39.723Z,21.90
2023-04-06T19:10:07.315Z,21.93
2023-04-06T19:12:38.956Z,21.77
2023-04-06T19:15:08.000Z,21.62
2023-04-06T19:17:35.221Z,21.46
2023-04-06T19:20:02.771Z,21.20
2023-04-06T19:22:29.688Z,21.12
2023-04-06T19:24:56.545Z,20.99
2023-04-06T19:27:23.355Z,21.08
2023-04-06T19:29:50.206Z,21.00
2023-04-06T19:32:17.338Z,20.40
2023-04-06T19:34:44.292Z,20.89
2023-04-06T19:37:11.395Z,20.83
2023-04-06T19:39:38.424Z,20.81
2023-04-06T19:42:05.182Z,20.79
2023-04-06T19:44:32.392Z,20.78
2023-04-06T19:46:59.402Z,20.76
2023-04-06T19:49:28.457Z,20.73
2023-04-06T19:51:55.758Z,20.71
2023-04-06T19:54:23.604Z,20.45
2023-04-06T19:56:50.534Z,20.74
2023-04-06T19:59:17.913Z,20.72
2023-04-06T20:01:45.664Z,20.56
2023-04-06T20:04:13.188Z,20.63
2023-04-06T20:06:40.162Z,20.67
2023-04-06T20:09:07.077Z,20.64
2023-04-06T20:11:35.682Z,20.57
2023-04-06T20:14:02.828Z,20.58
2023-04-06T20:16:29.791Z,20.29
2023-04-06T20:18:56.572Z,20.55
2023-04-06T20:21:23.280Z,20.50
2023-04-06T20:23:50.201Z,20.26
2023-04-06T20:26:16.954Z,20.42
2023-04-06T20:28:43.725Z,20.55
2023-04-06T20:31:10.908Z,20.50
2023-04-06T20:33:39.836Z,20.44
2023-04-06T20:36:06.734Z,20.53
2023-04-06T20:38:34.043Z,20.53
2023-04-06T20:41:02.139Z,20.52
2023-04-06T20:43:29.664Z,20.51
2023-04-06T20:45:57.808Z,20.51
2023-04-06T20:48:25.521Z,20.49
2023-04-06T20:50:52.927Z,20.29
2023-04-06T20:53:21.002Z,20.42
2023-04-06T20:55:47.940Z,20.41
2023-04-06T20:58:20.899Z,20.38
2023-04-06T21:00:49.720Z,20.34
2023-04-06T21:03:17.620Z,20.27
2023-04-06T21:06:00.015Z,20.11
2023-04-06T21:08:26.802Z,20.20
2023-04-06T21:10:53.555Z,20.15
2023-04-06T21:13:20.543Z,20.20
2023-04-06T21:15:47.366Z,20.17
2023-04-06T21:18:14.131Z,20.13
2023-04-06T21:20:41.029Z,20.11
2023-04-06T21:23:07.773Z,19.92
2023-04-06T21:25:37.101Z,20.07
2023-04-06T21:28:04.233Z,20.03
2023-04-06T21:30:36.971Z,20.01
2023-04-06T21:33:05.056Z,20.00
2023-04-06T21:35:31.934Z,19.97
2023-04-06T21:37:58.715Z,19.91
2023-04-06T21:40:25.613Z,19.95
2023-04-06T21:42:52.423Z,19.94
2023-04-06T21:45:19.147Z,19.94
2023-04-06T21:47:46.125Z,19.84
2023-04-06T21:50:12.885Z,19.90
2023-04-06T21:52:40.271Z,19.67
2023-04-06T21:55:07.728Z,19.82
2023-04-06T21:57:34.505Z,19.85
2023-04-06T22:00:02.221Z,19.85
2023-04-06T22:02:29.287Z,19.84
2023-04-06T22:04:56.278Z,19.86
2023-04-06T22:07:23.186Z,19.90
2023-04-06T22:09:53.740Z,19.83
2023-04-06T22:12:20.690Z,19.96
2023-04-06T22:14:47.442Z,19.91
2023-04-06T22:17:14.242Z,19.81
2023-04-06T22:19:40.974Z,19.60
2023-04-06T22:22:07.684Z,19.56
2023-04-06T22:24:34.632Z,19.33
2023-04-06T22:27:01.723Z,19.38
2023-04-06T22:29:28.510Z,19.38
2023-04-06T22:31:56.615Z,19.36
2023-04-06T22:34:23.349Z,19.36
2023-04-06T22:36:50.216Z,19.28
2023-04-06T22:39:17.335Z,19.31
2023-04-06T22:41:45.092Z,19.21
2023-04-06T22:44:11.842Z,19.05
2023-04-06T22:46:38.914Z,19.26
2023-04-06T22:49:06.008Z,19.29
2023-04-06T22:51:32.906Z,19.36
2023-04-06T22:53:59.882Z,19.45
2023-04-06T22:56:27.285Z,19.44
2023-04-06T22:58:56.076Z,19.48
2023-04-06T23:01:23.006Z,19.45
2023-04-06T23:03:50.742Z,19.50
2023-04-06T23:06:17.490Z,19.46
2023-04-06T23:08:44.403Z,19.35
2023-04-06T23:11:11.222Z,19.33
2023-04-06T23:13:38.030Z,19.18
2023-04-06T23:16:05.205Z,19.32
2023-04-06T23:18:31.922Z,19.27
2023-04-06T23:20:58.718Z,19.25
2023-04-06T23:23:25.632Z,19.19
2023-04-06T23:25:52.462Z,19.04
2023-04-06T23:28:19.214Z,18.99
2023-04-06T23:30:46.269Z,18.81
2023-04-06T23:33:13.056Z,18.84
2023-04-06T23:35:39.793Z,18.86
2023-04-06T23:38:06.722Z,18.56
2023-04-06T23:40:33.438Z,18.70
2023-04-06T23:43:00.218Z,18.72
2023-04-06T23:45:27.249Z,18.76
2023-04-06T23:47:54.364Z,18.78
2023-04-06T23:50:21.254Z,18.86
2023-04-06T23:52:48.203Z,18.91
2023-04-06T23:55:14.963Z,18.68
2023-04-06T23:57:41.804Z,18.34
